Portada
METAR-TAF:

METAR-TAF

Aeropuertos :

Aeropuerto de Chibougamau-Chapais

Chibougamau, Quebec, Canadá

latitud: 49-46N, longitud: 074-32W, altitud: 388 m

Observación

El informe se hizo hace 20 minutos, a las 19:31 UTC
Viento 10 kt del oeste-suroeste con ráfagas de 15 kt
Temperatura -7°C
Humedad 57%
Presión 1020 hPa
Visibilidad: 14.5 km
Cielo despejado

METAR: CYMT 201931Z AUTO 25010G15KT 9SM CLR M07/M14 A3011 RMK SLP240

Hora: 14:51 (19:51 UTC)

Pronóstico

El informe se hizo hace 2 horas y 13 minutos, a las 17:38 UTC
Pronóstico válido del 20 a las 18 UTC al 21 a las 01 UTC
Viento 12 kt del oeste-suroeste con ráfagas de 22 kt
Visibilidad: 10 km
Escasas nubes a una altura de 5000 ft
Nubes dispersas a una altura de 10000 ft
Evolucionando progresivamente
del 20 a las 21 UTC al 20 a las 23 UTC
Viento 5 kt del sur-suroeste

TAF: CYMT 201738Z 2018/2101 24012G22KT P6SM FEW050 SCT100 BECMG 2021/2023 20005KT RMK FCST BASED ON AUTO OBS. NXT FCST WILL BE ISSUED AT 211245Z

Observaciones y pronósticos meteorológicos de más de 4000 aeropuertos (mensajes METAR y TAF).

Los puntos amarillos y rojos representan las estaciones disponibles.

Ponga el ratón en el punto deseado para ver el nombre de la estación.

Haga clic para ver las observaciones y los pronósticos meteorológicos.

Para cambiar el mapa : haga clic en los botones verdes con una cruz de color negro para hacer un zoom, en el botón verde con un guión para alejar o en las flechas verdes para mapas adyacentes.


METAR-TAF: